Time;durP1;ratioP1;P1;durP2;ratioP2;P2;SDS_P1;SDS_P2;PMS_P1;PMS_P2;Temp;Humidity;BMP_temperature;BMP_pressure;BME280_temperature;BME280_humidity;BME280_pressure;Samples;Min_cycle;Max_cycle;Signal;HPM_P1;HPM_P2
2023/11/05 00:00:22;;;;;;;1.20;1.05;;;;;;;20.95;44.80;97167.03;5028548;28;20041;-73
2023/11/05 00:02:48;;;;;;;2.38;1.23;;;;;;;21.07;44.91;97183.34;5026232;28;20102;-74
2023/11/05 00:05:14;;;;;;;1.50;1.30;;;;;;;21.08;45.06;97182.28;5034190;28;20048;-73
2023/11/05 00:07:41;;;;;;;1.40;1.27;;;;;;;21.04;45.12;97178.63;5024198;28;20497;-74
2023/11/05 00:10:07;;;;;;;2.40;1.40;;;;;;;21.02;44.89;97181.53;5027627;28;20048;-73
2023/11/05 00:12:33;;;;;;;1.23;1.10;;;;;;;21.03;44.85;97177.03;5027458;28;20087;-73
2023/11/05 00:14:58;;;;;;;2.00;1.40;;;;;;;21.04;44.86;97181.25;5028184;28;20049;-73
2023/11/05 00:17:24;;;;;;;1.67;1.25;;;;;;;20.92;44.69;97162.28;5025118;28;20037;-75
2023/11/05 00:19:49;;;;;;;2.33;1.33;;;;;;;21.00;44.83;97170.41;5025965;28;20049;-73
2023/11/05 00:22:17;;;;;;;3.20;1.63;;;;;;;21.03;45.09;97177.84;5028453;28;20050;-73
2023/11/05 00:24:43;;;;;;;1.60;1.23;;;;;;;21.04;44.89;97187.34;5011771;28;20120;-73
2023/11/05 00:27:09;;;;;;;1.23;1.05;;;;;;;21.02;44.85;97181.53;5024686;28;20115;-73
2023/11/05 00:29:34;;;;;;;1.20;1.10;;;;;;;21.03;45.11;97182.34;5028311;28;20052;-73
2023/11/05 00:32:00;;;;;;;1.55;1.33;;;;;;;21.03;44.81;97182.34;5023678;28;20428;-74
2023/11/05 00:34:26;;;;;;;2.15;1.77;;;;;;;20.80;44.92;97149.41;5020915;28;20103;-73
2023/11/05 00:36:51;;;;;;;1.80;1.40;;;;;;;20.90;44.88;97167.88;5021120;28;20037;-73
2023/11/05 00:39:17;;;;;;;2.28;1.33;;;;;;;20.98;44.88;97172.56;5029084;28;20074;-73
2023/11/05 00:41:42;;;;;;;2.20;1.30;;;;;;;20.93;44.95;97171.81;5025308;28;20113;-74
2023/11/05 00:44:08;;;;;;;2.95;1.40;;;;;;;20.99;44.99;97179.44;5026242;28;20062;-73
2023/11/05 00:46:33;;;;;;;1.40;1.13;;;;;;;20.99;44.95;97173.34;5024073;28;20095;-73
2023/11/05 00:48:59;;;;;;;2.10;1.30;;;;;;;20.98;44.98;97175.19;5019566;28;20037;-74
2023/11/05 00:51:25;;;;;;;1.30;1.20;;;;;;;20.99;44.97;97176.00;5024141;28;20037;-73
2023/11/05 00:53:50;;;;;;;2.33;1.60;;;;;;;20.91;44.83;97166.78;5025547;28;20111;-73
2023/11/05 00:56:16;;;;;;;2.35;1.20;;;;;;;20.97;45.12;97170.97;5027933;28;20027;-73
2023/11/05 00:58:42;;;;;;;1.83;1.00;;;;;;;20.96;44.97;97169.41;5023457;28;20477;-73
2023/11/05 01:01:08;;;;;;;1.30;1.20;;;;;;;20.96;45.10;97171.25;5023972;28;20033;-73
2023/11/05 01:03:33;;;;;;;1.83;1.27;;;;;;;20.92;45.24;97163.09;5023784;28;20028;-73
2023/11/05 01:05:59;;;;;;;2.65;1.38;;;;;;;20.93;45.06;97164.66;5028571;28;20566;-73
2023/11/05 01:08:24;;;;;;;2.67;1.38;;;;;;;20.95;45.14;97173.09;5020160;28;20052;-73
2023/11/05 01:10:50;;;;;;;2.15;1.27;;;;;;;20.88;45.07;97163.91;5025356;28;20068;-73
2023/11/05 01:13:15;;;;;;;2.65;1.30;;;;;;;20.93;45.09;97177.88;5023516;28;20530;-73
2023/11/05 01:15:42;;;;;;;1.50;1.25;;;;;;;20.68;45.09;97144.47;5014320;28;20124;-73
2023/11/05 01:18:07;;;;;;;1.33;0.98;;;;;;;20.87;44.93;97165.78;5032901;28;20203;-73
2023/11/05 01:20:33;;;;;;;2.53;1.30;;;;;;;20.72;44.98;97147.34;5032272;28;20033;-73
2023/11/05 01:22:58;;;;;;;4.07;1.77;;;;;;;20.84;45.00;97162.88;5026798;28;20068;-73
2023/11/05 01:25:24;;;;;;;1.65;1.15;;;;;;;20.90;45.06;97175.78;5024385;28;20053;-73
2023/11/05 01:27:49;;;;;;;1.60;1.08;;;;;;;20.91;45.17;97176.59;5016444;28;20041;-73
2023/11/05 01:30:15;;;;;;;1.55;0.98;;;;;;;20.85;45.21;97180.34;5026506;28;20041;-73
2023/11/05 01:32:40;;;;;;;2.17;1.30;;;;;;;20.89;45.11;97178.72;5021615;28;20071;-73
2023/11/05 01:35:06;;;;;;;2.38;1.13;;;;;;;20.88;44.98;97174.50;5020270;28;20042;-73
2023/11/05 01:37:32;;;;;;;2.40;1.48;;;;;;;20.80;44.96;97162.63;5029662;28;20045;-73
2023/11/05 01:39:57;;;;;;;1.67;1.27;;;;;;;20.77;45.03;97156.03;5022852;28;20041;-73
2023/11/05 01:42:24;;;;;;;1.75;1.50;;;;;;;20.75;45.26;97147.59;5018413;28;20046;-73
2023/11/05 01:44:49;;;;;;;1.45;1.35;;;;;;;20.82;45.16;97160.50;5021904;28;20525;-72
2023/11/05 01:47:16;;;;;;;1.33;1.17;;;;;;;20.64;45.01;97132.06;5018833;28;20049;-73
2023/11/05 01:49:42;;;;;;;1.55;1.20;;;;;;;20.78;44.91;97160.25;5025490;28;20045;-73
2023/11/05 01:52:09;;;;;;;1.50;0.80;;;;;;;20.84;45.04;97168.97;5026383;28;20083;-73
2023/11/05 01:54:35;;;;;;;2.70;1.33;;;;;;;20.83;45.02;97167.38;5018672;28;20124;-74
2023/11/05 01:57:01;;;;;;;2.63;1.40;;;;;;;20.80;44.95;97159.97;5023751;28;20084;-73
2023/11/05 01:59:27;;;;;;;1.63;1.33;;;;;;;20.68;45.10;97147.13;5020985;28;20490;-73
2023/11/05 02:01:54;;;;;;;1.90;1.20;;;;;;;20.82;44.91;97165.78;5020122;28;20037;-73
2023/11/05 02:04:20;;;;;;;2.38;1.40;;;;;;;20.73;45.22;97151.56;5021626;28;20037;-73
2023/11/05 02:06:46;;;;;;;3.22;1.33;;;;;;;20.78;44.99;97156.81;5020612;28;20124;-73
2023/11/05 02:09:11;;;;;;;2.80;1.30;;;;;;;20.80;45.17;97158.13;5032918;28;20148;-73
2023/11/05 02:11:37;;;;;;;1.13;1.10;;;;;;;20.71;45.16;97143.13;5019436;28;20526;-73
2023/11/05 02:14:03;;;;;;;2.85;1.40;;;;;;;20.81;45.19;97158.91;5005240;28;20479;-73
2023/11/05 02:16:31;;;;;;;1.55;1.45;;;;;;;20.77;44.89;97156.03;5022499;28;20042;-73
2023/11/05 02:19:00;;;;;;;1.90;1.30;;;;;;;20.79;45.15;97153.91;5013632;28;20117;-73
2023/11/05 02:21:42;;;;;;;2.80;1.13;;;;;;;20.78;45.03;97152.31;5023233;28;20068;-73
2023/11/05 02:24:08;;;;;;;2.80;1.50;;;;;;;20.66;45.18;97127.31;5026178;28;20111;-74
2023/11/05 02:26:34;;;;;;;1.55;1.10;;;;;;;20.79;45.03;97150.47;5020774;28;20480;-73
2023/11/05 02:28:59;;;;;;;1.30;0.95;;;;;;;20.70;45.19;97133.63;5025238;28;20041;-73
2023/11/05 02:31:25;;;;;;;2.38;1.48;;;;;;;20.76;45.06;97145.72;5020905;28;20129;-73
2023/11/05 02:33:50;;;;;;;1.92;1.13;;;;;;;20.73;45.19;97141.78;5026045;28;20488;-73
2023/11/05 02:36:16;;;;;;;2.25;1.30;;;;;;;20.71;45.21;97136.00;5024451;28;20033;-74
2023/11/05 02:38:42;;;;;;;1.35;0.88;;;;;;;20.74;45.14;97143.38;5030430;28;20099;-74
2023/11/05 02:41:11;;;;;;;3.42;1.30;;;;;;;20.73;45.25;97146.28;5025292;28;20649;-74
2023/11/05 02:43:37;;;;;;;2.03;1.45;;;;;;;20.73;45.29;97141.00;5030564;28;20063;-74
2023/11/05 02:46:03;;;;;;;1.25;0.82;;;;;;;20.74;45.17;97143.38;5026950;28;20040;-74
2023/11/05 02:48:29;;;;;;;1.90;1.13;;;;;;;20.73;44.94;97146.28;5021311;28;20057;-74
2023/11/05 02:50:54;;;;;;;2.50;1.40;;;;;;;20.70;45.19;97136.25;5019818;28;20514;-74
2023/11/05 02:53:21;;;;;;;1.13;1.02;;;;;;;20.73;45.27;97152.38;5019795;28;20033;-73
2023/11/05 02:55:47;;;;;;;3.35;1.20;;;;;;;20.63;45.13;97131.25;5020432;28;20619;-74
2023/11/05 02:58:13;;;;;;;2.65;1.20;;;;;;;20.70;45.00;97144.19;5029921;28;20029;-73
2023/11/05 03:00:39;;;;;;;1.85;1.30;;;;;;;20.72;45.22;97139.41;5020547;28;20040;-74
2023/11/05 03:03:05;;;;;;;3.13;1.30;;;;;;;20.63;45.28;97131.25;5021963;28;20037;-74
2023/11/05 03:05:30;;;;;;;2.30;1.48;;;;;;;20.70;44.98;97142.34;5024809;28;20037;-74
2023/11/05 03:07:56;;;;;;;2.58;1.30;;;;;;;20.65;45.06;97133.66;5034194;28;20415;-74
2023/11/05 03:10:21;;;;;;;2.28;1.23;;;;;;;20.63;45.21;97128.63;5023272;28;20060;-74
2023/11/05 03:12:47;;;;;;;2.17;1.20;;;;;;;20.68;45.20;97139.19;5025692;28;20041;-74
2023/11/05 03:15:12;;;;;;;1.80;1.10;;;;;;;20.68;45.17;97139.19;5021808;28;20424;-73
2023/11/05 03:17:38;;;;;;;2.63;1.08;;;;;;;20.68;45.11;97138.41;5025381;28;20557;-73
2023/11/05 03:20:07;;;;;;;1.00;0.90;;;;;;;20.67;45.03;97127.03;5019646;28;20045;-73
2023/11/05 03:22:39;;;;;;;1.95;1.70;;;;;;;20.68;45.26;97138.41;5022884;28;20520;-74
2023/11/05 03:25:06;;;;;;;1.48;1.25;;;;;;;20.66;44.98;97132.59;5033330;28;20091;-74
2023/11/05 03:27:32;;;;;;;2.33;1.00;;;;;;;20.67;45.31;97134.16;5027219;28;20083;-72
2023/11/05 03:29:58;;;;;;;2.10;1.30;;;;;;;20.66;45.13;97137.88;5021429;28;20116;-74
2023/11/05 03:32:24;;;;;;;1.88;1.10;;;;;;;20.63;45.16;97127.81;5019890;28;20060;-74
2023/11/05 03:34:49;;;;;;;2.03;1.08;;;;;;;20.65;45.04;97134.44;5025373;28;20033;-74
2023/11/05 03:37:16;;;;;;;1.98;1.15;;;;;;;20.64;45.21;97135.47;5029470;28;20041;-74
2023/11/05 03:39:43;;;;;;;2.05;1.20;;;;;;;20.58;45.16;97127.88;5034100;28;20028;-73
2023/11/05 03:42:10;;;;;;;1.77;1.10;;;;;;;20.64;45.01;97137.34;5032913;28;20041;-74
2023/11/05 03:44:36;;;;;;;1.60;1.23;;;;;;;20.62;45.30;97131.53;5028708;28;20045;-74
2023/11/05 03:47:02;;;;;;;2.00;1.27;;;;;;;20.51;45.08;97118.41;5028402;28;20520;-73
2023/11/05 03:49:28;;;;;;;2.42;1.40;;;;;;;20.55;45.20;97118.63;5031842;28;20127;-74
2023/11/05 03:51:53;;;;;;;2.55;1.40;;;;;;;20.61;45.07;97133.38;5026648;28;20544;-74
2023/11/05 03:54:19;;;;;;;1.92;1.20;;;;;;;20.59;45.10;97135.53;5027420;28;20049;-73
2023/11/05 03:56:45;;;;;;;2.20;1.20;;;;;;;20.51;45.25;97117.59;5024750;28;20033;-74
2023/11/05 03:59:11;;;;;;;1.08;0.85;;;;;;;20.59;44.99;97135.53;5024039;28;20565;-74
2023/11/05 04:01:36;;;;;;;1.38;1.20;;;;;;;20.62;45.05;97136.81;5029078;28;20061;-74
2023/11/05 04:04:02;;;;;;;1.95;1.15;;;;;;;20.60;45.21;97146.88;5023411;28;20049;-73
2023/11/05 04:06:27;;;;;;;1.42;1.17;;;;;;;20.50;45.09;97127.38;5027934;28;20037;-74
2023/11/05 04:08:53;;;;;;;1.25;1.00;;;;;;;20.58;45.29;97144.50;5040711;28;20052;-74
2023/11/05 04:11:19;;;;;;;1.98;1.20;;;;;;;20.59;45.00;97134.72;5033022;28;20045;-74
2023/11/05 04:13:46;;;;;;;2.17;1.48;;;;;;;20.58;45.31;97133.94;5030399;28;20033;-75
2023/11/05 04:16:12;;;;;;;1.60;1.00;;;;;;;20.59;45.19;97127.59;5025259;28;20672;-75
2023/11/05 04:18:39;;;;;;;1.55;1.17;;;;;;;20.57;45.17;97123.66;5023851;28;20060;-74
2023/11/05 04:21:05;;;;;;;2.60;1.50;;;;;;;20.48;45.17;97112.88;5024242;28;20143;-74
2023/11/05 04:23:32;;;;;;;2.30;0.95;;;;;;;20.58;45.12;97120.72;5026098;28;20868;-73
2023/11/05 04:25:58;;;;;;;1.65;1.27;;;;;;;20.54;45.24;97124.97;5022223;28;20502;-74
2023/11/05 04:28:23;;;;;;;3.25;1.30;;;;;;;20.57;45.24;97126.28;5024048;28;20052;-74
2023/11/05 04:30:49;;;;;;;2.00;1.30;;;;;;;20.49;45.22;97117.88;5020939;28;20085;-74
2023/11/05 04:33:14;;;;;;;1.35;0.85;;;;;;;20.49;45.22;97112.59;5021156;28;20041;-74
2023/11/05 04:35:40;;;;;;;1.58;1.30;;;;;;;20.55;45.36;97120.50;5020201;28;20033;-74
2023/11/05 04:38:06;;;;;;;2.03;1.27;;;;;;;20.57;45.25;97127.06;5025326;28;20053;-74
2023/11/05 04:40:31;;;;;;;1.83;1.02;;;;;;;20.56;45.14;97116.78;5027027;28;20056;-74
2023/11/05 04:42:57;;;;;;;3.22;1.38;;;;;;;20.30;45.05;97079.91;5037883;28;20036;-74
2023/11/05 04:45:22;;;;;;;2.97;1.10;;;;;;;20.56;45.16;97117.56;5027469;28;20854;-74
2023/11/05 04:47:48;;;;;;;2.05;1.50;;;;;;;20.56;45.33;97114.94;5025853;28;20041;-74
2023/11/05 04:50:13;;;;;;;3.55;1.40;;;;;;;20.50;45.18;97111.53;5025406;28;20033;-74
2023/11/05 04:52:39;;;;;;;1.77;1.05;;;;;;;20.46;45.12;97099.13;5039964;28;20048;-74
2023/11/05 04:55:05;;;;;;;1.42;0.85;;;;;;;20.54;45.02;97117.06;5028779;28;20110;-74
2023/11/05 04:57:32;;;;;;;2.55;1.17;;;;;;;20.45;45.23;97108.09;5020284;28;20143;-74
2023/11/05 04:59:57;;;;;;;2.08;1.13;;;;;;;20.52;45.12;97112.03;5025464;28;20037;-74
2023/11/05 05:02:23;;;;;;;1.13;1.02;;;;;;;20.52;45.33;97114.69;5025281;28;20080;-74
2023/11/05 05:04:49;;;;;;;2.83;1.27;;;;;;;20.57;45.05;97121.00;5027017;28;20076;-74
2023/11/05 05:07:14;;;;;;;0.90;0.77;;;;;;;20.48;45.10;97102.31;5023503;28;20108;-74
2023/11/05 05:09:43;;;;;;;2.70;1.45;;;;;;;20.50;45.12;97106.25;5012116;28;20037;-74
2023/11/05 05:12:08;;;;;;;1.20;1.10;;;;;;;20.60;44.95;97120.44;5022539;28;20060;-74
2023/11/05 05:14:34;;;;;;;1.70;1.40;;;;;;;20.54;45.05;97105.69;5022369;28;20045;-73
2023/11/05 05:17:00;;;;;;;1.33;0.90;;;;;;;20.49;45.16;97104.66;5020367;28;20073;-73
2023/11/05 05:19:26;;;;;;;1.77;0.93;;;;;;;20.60;45.14;97118.59;5028389;28;20546;-73
2023/11/05 05:21:51;;;;;;;1.63;1.00;;;;;;;20.57;44.98;97121.00;5025128;28;20060;-73
2023/11/05 05:24:17;;;;;;;1.63;1.10;;;;;;;20.53;45.14;97115.47;5030117;28;20063;-74
2023/11/05 05:26:42;;;;;;;3.08;1.10;;;;;;;20.57;45.18;97121.00;5023654;28;20052;-74
2023/11/05 05:29:08;;;;;;;1.20;1.00;;;;;;;20.55;44.99;97112.56;5026379;28;20049;-73
2023/11/05 05:31:33;;;;;;;1.17;1.05;;;;;;;20.58;45.24;97120.72;5022104;28;20033;-72
2023/11/05 05:33:59;;;;;;;2.40;1.60;;;;;;;20.59;45.00;97118.88;5025299;28;20065;-74
2023/11/05 05:36:25;;;;;;;3.13;1.38;;;;;;;20.60;45.03;97121.25;5018533;28;20491;-74
2023/11/05 05:38:54;;;;;;;2.88;1.30;;;;;;;20.41;45.21;97085.94;5028617;28;20041;-74
2023/11/05 05:41:20;;;;;;;1.63;1.10;;;;;;;20.46;45.11;97099.91;5015704;28;20777;-74
2023/11/05 05:43:45;;;;;;;1.70;0.95;;;;;;;20.50;45.01;97100.16;5015489;28;20034;-74
2023/11/05 05:46:15;;;;;;;1.80;1.00;;;;;;;20.57;45.19;97118.34;5023184;28;20541;-74
2023/11/05 05:48:41;;;;;;;4.10;1.30;;;;;;;20.52;45.30;97112.03;5026797;28;20107;-73
2023/11/05 05:51:12;;;;;;;1.92;1.33;;;;;;;20.57;45.19;97118.34;5028860;28;20048;-73
2023/11/05 05:53:38;;;;;;;1.95;1.58;;;;;;;20.58;45.07;97122.56;5029280;28;20076;-74
2023/11/05 05:56:05;;;;;;;1.83;1.20;;;;;;;20.57;45.16;97123.66;5024477;28;21664;-73
2023/11/05 05:58:30;;;;;;;2.45;1.27;;;;;;;20.57;45.11;97127.06;5023205;28;20041;-74
2023/11/05 06:00:56;;;;;;;1.58;1.10;;;;;;;20.56;45.02;97119.41;5017602;28;20037;-73
2023/11/05 06:03:22;;;;;;;1.05;0.95;;;;;;;20.55;45.19;97121.28;5026983;28;20491;-74
2023/11/05 06:05:47;;;;;;;2.47;0.82;;;;;;;20.58;45.11;97127.88;5027154;28;20045;-74
2023/11/05 06:08:13;;;;;;;2.75;1.38;;;;;;;20.57;45.23;97128.94;5025454;28;20048;-74
2023/11/05 06:10:38;;;;;;;1.40;1.10;;;;;;;20.54;45.49;97124.19;5027844;28;20494;-74
2023/11/05 06:13:04;;;;;;;3.22;1.08;;;;;;;20.58;45.17;97133.16;5025193;28;20037;-73
2023/11/05 06:15:29;;;;;;;1.55;1.10;;;;;;;20.36;45.14;97099.94;5020306;28;20045;-74
2023/11/05 06:17:55;;;;;;;2.00;1.10;;;;;;;20.56;45.17;97132.63;5028744;28;20048;-74
2023/11/05 06:20:21;;;;;;;1.00;0.88;;;;;;;20.57;45.08;97145.56;5031379;28;20047;-74
2023/11/05 06:22:47;;;;;;;1.75;1.27;;;;;;;20.58;45.14;97146.38;5030700;28;20056;-73
2023/11/05 06:25:12;;;;;;;2.08;1.13;;;;;;;20.47;45.26;97130.59;5020541;28;20045;-75
2023/11/05 06:27:39;;;;;;;1.60;0.90;;;;;;;20.55;45.20;97150.34;5025610;28;20514;-74
2023/11/05 06:30:09;;;;;;;2.03;1.25;;;;;;;20.55;45.24;97146.91;5026123;28;20119;-74
2023/11/05 06:32:35;;;;;;;2.53;1.40;;;;;;;20.53;45.03;97144.56;5034505;28;20044;-74
2023/11/05 06:35:01;;;;;;;1.58;0.95;;;;;;;20.56;45.13;97157.22;5014623;28;20042;-74
2023/11/05 06:37:27;;;;;;;0.77;0.77;;;;;;;20.55;45.01;97153.00;5034940;28;20044;-74
2023/11/05 06:39:53;;;;;;;2.08;1.42;;;;;;;20.55;45.09;97153.00;5031243;28;20447;-74
2023/11/05 06:42:18;;;;;;;1.80;1.27;;;;;;;20.56;45.16;97156.44;5020903;28;20533;-73
2023/11/05 06:44:45;;;;;;;1.58;1.20;;;;;;;20.57;45.20;97160.66;5025618;28;20037;-74
2023/11/05 06:47:11;;;;;;;1.42;0.95;;;;;;;20.54;45.12;97155.91;5025697;28;20045;-74
2023/11/05 06:49:36;;;;;;;1.75;1.02;;;;;;;20.50;45.28;97156.47;5024911;28;20048;-74
2023/11/05 06:52:02;;;;;;;1.73;0.90;;;;;;;20.50;45.24;97160.97;5031941;28;20045;-74
2023/11/05 06:54:27;;;;;;;3.15;1.13;;;;;;;20.37;45.24;97145.66;5023394;28;20045;-74
2023/11/05 06:56:53;;;;;;;2.05;1.33;;;;;;;20.48;45.14;97163.88;5025229;28;20046;-74
2023/11/05 06:59:19;;;;;;;1.50;0.95;;;;;;;20.49;44.95;97169.94;5025886;28;20434;-74
2023/11/05 07:01:46;;;;;;;1.95;1.17;;;;;;;20.55;45.19;97174.13;5029225;28;20356;-73
2023/11/05 07:04:12;;;;;;;1.73;1.00;;;;;;;20.52;45.06;97177.34;5026204;28;20039;-74
2023/11/05 07:06:38;;;;;;;1.92;0.98;;;;;;;20.49;45.16;97167.31;5027098;28;20045;-74
2023/11/05 07:09:06;;;;;;;2.47;1.23;;;;;;;20.68;44.89;97184.13;5026991;28;20061;-74
2023/11/05 07:11:32;;;;;;;2.25;1.08;;;;;;;20.72;44.79;97179.88;5022527;28;20045;-74
2023/11/05 07:13:58;;;;;;;1.42;0.60;;;;;;;20.98;44.59;97185.78;5031496;28;20045;-74
2023/11/05 07:16:25;;;;;;;0.70;0.63;;;;;;;21.05;44.47;97183.63;5019674;28;20074;-73
2023/11/05 07:18:52;;;;;;;0.88;0.45;;;;;;;21.13;44.17;97182.25;5027863;28;20037;-74
2023/11/05 07:21:17;;;;;;;2.22;1.10;;;;;;;21.15;44.02;97174.03;5025097;28;20411;-74
2023/11/05 07:23:43;;;;;;;1.95;1.00;;;;;;;21.25;44.42;97189.88;5034426;28;20044;-74
2023/11/05 07:26:11;;;;;;;1.23;0.98;;;;;;;21.21;44.67;97191.47;5026128;28;20043;-74
2023/11/05 07:28:36;;;;;;;1.65;0.73;;;;;;;21.12;44.43;97183.31;5025392;28;20037;-74
2023/11/05 07:31:02;;;;;;;1.85;1.00;;;;;;;21.15;44.46;97195.19;5035711;28;20048;-73
2023/11/05 07:33:28;;;;;;;1.95;0.63;;;;;;;21.13;44.77;97203.41;5033782;28;20037;-73
2023/11/05 07:35:53;;;;;;;1.92;1.00;;;;;;;21.05;44.65;97194.22;5035795;28;20040;-74
2023/11/05 07:38:19;;;;;;;1.67;0.73;;;;;;;21.01;44.86;97195.84;5037188;28;20041;-73
2023/11/05 07:40:45;;;;;;;2.58;1.63;;;;;;;21.06;44.95;97202.94;5023762;28;20702;-73
2023/11/05 07:43:10;;;;;;;2.58;1.20;;;;;;;21.08;44.99;97203.44;5026084;28;20050;-74
2023/11/05 07:45:36;;;;;;;1.20;0.82;;;;;;;21.04;44.84;97205.88;5026589;28;20053;-73
2023/11/05 07:48:02;;;;;;;1.65;0.90;;;;;;;21.00;44.86;97202.16;5028164;28;20052;-74
2023/11/05 07:50:27;;;;;;;1.08;0.98;;;;;;;21.04;45.07;97213.78;5025836;28;20132;-73
2023/11/05 07:52:53;;;;;;;1.30;0.82;;;;;;;21.03;45.02;97216.72;5026546;28;20037;-74
2023/11/05 07:55:18;;;;;;;1.30;0.93;;;;;;;21.04;44.81;97221.72;5028767;28;20064;-74
2023/11/05 07:57:45;;;;;;;1.80;0.77;;;;;;;21.03;45.02;97220.16;5028421;28;20038;-74
2023/11/05 08:00:15;;;;;;;0.70;0.70;;;;;;;21.08;44.93;97222.75;5027680;28;20045;-73
2023/11/05 08:02:44;;;;;;;1.80;1.10;;;;;;;21.09;44.92;97215.63;5026210;28;20037;-73
2023/11/05 08:05:10;;;;;;;1.23;0.88;;;;;;;21.12;44.65;97204.47;5029880;28;20045;-74
2023/11/05 08:07:36;;;;;;;1.30;0.90;;;;;;;21.23;44.81;97221.88;5027246;28;20037;-74
2023/11/05 08:10:06;;;;;;;1.55;0.85;;;;;;;21.24;44.56;97227.97;5032000;28;20060;-74
2023/11/05 08:12:32;;;;;;;1.13;0.88;;;;;;;21.13;44.66;97209.50;5026333;28;20047;-73
2023/11/05 08:14:58;;;;;;;1.42;0.85;;;;;;;21.13;44.60;97211.34;5028721;28;20057;-73
2023/11/05 08:17:24;;;;;;;2.58;1.10;;;;;;;21.23;44.88;97236.97;5025548;28;20041;-74
2023/11/05 08:19:50;;;;;;;1.58;0.98;;;;;;;21.22;44.79;97243.31;5023807;28;20041;-74
2023/11/05 08:22:17;;;;;;;1.70;0.98;;;;;;;21.17;44.76;97238.81;5026365;28;20049;-74
2023/11/05 08:24:44;;;;;;;0.82;0.73;;;;;;;21.21;44.74;97247.03;5030172;28;20045;-74
2023/11/05 08:27:10;;;;;;;1.63;0.80;;;;;;;21.10;45.17;97230.41;5028268;28;20048;-74
2023/11/05 08:29:36;;;;;;;1.20;0.80;;;;;;;21.20;44.74;97251.53;5023090;28;20136;-74
2023/11/05 08:32:02;;;;;;;1.92;1.00;;;;;;;21.18;45.09;97252.84;5021178;28;20041;-73
2023/11/05 08:34:27;;;;;;;0.88;0.65;;;;;;;21.15;44.88;97264.78;5018590;28;20416;-73
2023/11/05 08:36:54;;;;;;;1.80;0.90;;;;;;;21.16;44.87;97263.72;5022664;28;20071;-73
2023/11/05 08:39:20;;;;;;;1.48;0.90;;;;;;;21.17;45.03;97269.78;5025620;28;20469;-73
2023/11/05 08:41:46;;;;;;;0.90;0.75;;;;;;;21.13;45.06;97261.63;5027562;28;20094;-73
2023/11/05 08:44:12;;;;;;;1.23;1.00;;;;;;;21.08;45.05;97257.16;5024047;28;20041;-73
2023/11/05 08:46:37;;;;;;;2.85;1.27;;;;;;;21.16;45.09;97274.28;5021867;28;20061;-74
2023/11/05 08:49:03;;;;;;;0.90;0.60;;;;;;;21.09;44.99;97271.97;5025709;28;20038;-74
2023/11/05 08:51:29;;;;;;;1.17;0.93;;;;;;;21.15;44.85;97282.50;5026742;28;20037;-74
2023/11/05 08:53:54;;;;;;;1.80;0.80;;;;;;;21.11;44.97;97279.63;5026954;28;20087;-74
2023/11/05 08:56:20;;;;;;;1.83;1.02;;;;;;;21.08;44.90;97275.66;5019995;28;20068;-74
2023/11/05 08:58:48;;;;;;;1.17;0.90;;;;;;;21.12;45.03;97283.84;5026040;28;20163;-73
2023/11/05 09:01:16;;;;;;;1.05;0.90;;;;;;;21.13;44.82;97291.50;5022182;28;20037;-73
2023/11/05 09:03:46;;;;;;;1.40;0.88;;;;;;;21.01;44.86;97279.69;5003323;28;20649;-73
2023/11/05 09:06:12;;;;;;;1.20;0.88;;;;;;;21.15;44.72;97298.38;5026759;28;20384;-72
2023/11/05 09:08:38;;;;;;;0.90;0.90;;;;;;;21.04;44.81;97290.50;5024210;28;20041;-72
2023/11/05 09:11:08;;;;;;;1.85;0.70;;;;;;;21.12;45.09;97305.78;5023990;28;20045;-72
2023/11/05 09:13:35;;;;;;;2.17;1.10;;;;;;;21.05;45.13;97299.22;5024198;28;20470;-71
2023/11/05 09:16:02;;;;;;;1.38;0.93;;;;;;;21.13;44.78;97319.81;5023772;28;20037;-71
2023/11/05 09:18:28;;;;;;;1.13;0.82;;;;;;;21.11;45.10;97316.66;5025336;28;20052;-71
2023/11/05 09:20:56;;;;;;;1.13;1.00;;;;;;;21.11;44.84;97316.66;5021837;28;20458;-72
2023/11/05 09:23:23;;;;;;;1.38;0.80;;;;;;;21.10;44.99;97325.66;5022563;28;20055;-72
2023/11/05 09:25:49;;;;;;;1.23;0.70;;;;;;;21.01;44.86;97311.44;5020463;28;20049;-72
2023/11/05 09:28:15;;;;;;;1.02;0.77;;;;;;;21.11;44.87;97324.59;5019129;28;20507;-72
2023/11/05 09:30:42;;;;;;;1.00;0.90;;;;;;;21.11;44.67;97329.88;5020221;28;20049;-72
2023/11/05 09:33:09;;;;;;;1.02;0.88;;;;;;;21.01;44.86;97319.38;5023056;28;20045;-72
2023/11/05 09:35:34;;;;;;;1.02;0.88;;;;;;;21.05;44.90;97320.41;5026701;28;20514;-73
2023/11/05 09:38:02;;;;;;;1.33;0.88;;;;;;;21.06;44.90;97322.78;5021908;28;20046;-72
2023/11/05 09:40:27;;;;;;;1.48;0.80;;;;;;;21.15;44.89;97335.41;5018195;28;20719;-73
2023/11/05 09:43:01;;;;;;;0.80;0.80;;;;;;;21.30;44.53;97341.47;5022896;28;20112;-72
2023/11/05 09:45:28;;;;;;;1.95;0.80;;;;;;;21.47;44.26;97341.09;5028295;28;20467;-72
2023/11/05 09:47:55;;;;;;;1.15;1.05;;;;;;;21.50;44.20;97347.69;5023622;28;20720;-72
2023/11/05 09:50:21;;;;;;;1.65;0.77;;;;;;;21.47;44.12;97354.34;5020521;28;20636;-72
2023/11/05 09:52:47;;;;;;;0.68;0.68;;;;;;;21.51;44.41;97351.94;5028276;28;20048;-72
2023/11/05 09:55:12;;;;;;;2.00;1.00;;;;;;;21.24;44.33;97320.56;5021223;28;20076;-72
2023/11/05 09:57:38;;;;;;;2.20;1.08;;;;;;;21.34;44.50;97342.47;5022065;28;20029;-73
2023/11/05 10:00:09;;;;;;;1.75;0.80;;;;;;;21.38;44.58;97356.00;5024646;28;20041;-72
2023/11/05 10:02:57;;;;;;;1.50;0.90;;;;;;;21.41;44.61;97364.16;5029808;28;20025;-72
2023/11/05 10:05:26;;;;;;;0.50;0.47;;;;;;;21.33;44.75;97348.84;5022173;28;20036;-72
2023/11/05 10:07:53;;;;;;;1.08;0.88;;;;;;;21.34;44.52;97363.66;5022945;28;20060;-72
2023/11/05 10:10:19;;;;;;;1.10;1.00;;;;;;;21.37;44.44;97371.06;5020606;28;20034;-72
2023/11/05 10:12:45;;;;;;;1.15;0.75;;;;;;;21.35;44.70;97367.88;5015076;28;20092;-72
2023/11/05 10:15:11;;;;;;;0.63;0.63;;;;;;;21.35;44.82;97380.31;5025525;28;20385;-73
2023/11/05 10:17:37;;;;;;;0.93;0.82;;;;;;;21.37;44.85;97375.59;5020617;28;20041;-73
2023/11/05 10:20:03;;;;;;;1.65;0.80;;;;;;;21.25;44.59;97360.00;5024721;28;20063;-72
2023/11/05 10:22:28;;;;;;;1.10;0.90;;;;;;;21.29;44.83;97368.97;5025221;28;20060;-72
2023/11/05 10:24:54;;;;;;;1.00;0.75;;;;;;;21.35;45.02;97382.97;5003896;28;20025;-72
2023/11/05 10:27:30;;;;;;;1.52;0.82;;;;;;;21.33;44.91;97382.47;5027227;28;20042;-73
2023/11/05 10:29:57;;;;;;;1.52;1.23;;;;;;;21.34;44.86;97394.63;5026246;28;20103;-72
2023/11/05 10:32:23;;;;;;;1.00;0.80;;;;;;;21.27;44.66;97387.00;5021389;28;20038;-73
2023/11/05 10:34:52;;;;;;;1.55;1.00;;;;;;;21.34;44.48;97399.91;5021809;28;20048;-72
2023/11/05 10:37:18;;;;;;;1.33;0.75;;;;;;;21.26;44.65;97392.56;5024009;28;20040;-72
2023/11/05 10:39:44;;;;;;;2.08;0.80;;;;;;;21.29;44.78;97394.66;5034587;28;20653;-72
2023/11/05 10:42:12;;;;;;;0.85;0.68;;;;;;;21.27;44.83;97399.44;5022407;28;20041;-72
2023/11/05 10:44:41;;;;;;;1.33;0.88;;;;;;;21.33;44.66;97414.22;5022127;28;20037;-72
2023/11/05 10:47:10;;;;;;;1.95;0.93;;;;;;;21.34;44.86;97416.59;5019138;28;20033;-73
2023/11/05 10:49:37;;;;;;;1.02;0.90;;;;;;;21.28;44.60;97404.44;5020199;28;20045;-73
2023/11/05 10:52:07;;;;;;;1.13;0.95;;;;;;;21.31;44.73;97416.34;5021866;28;20503;-72
2023/11/05 10:54:34;;;;;;;1.23;1.13;;;;;;;21.18;44.84;97401.00;5022560;28;20041;-72
2023/11/05 10:57:00;;;;;;;0.80;0.80;;;;;;;21.31;44.61;97419.00;5019653;28;20049;-72
2023/11/05 10:59:37;;;;;;;0.88;0.85;;;;;;;21.26;44.57;97426.97;5025550;28;20164;-73
2023/11/05 11:02:06;;;;;;;1.60;1.00;;;;;;;21.24;44.33;97419.28;5021561;28;20092;-73
2023/11/05 11:04:32;;;;;;;2.05;1.00;;;;;;;21.30;44.70;97435.94;5023561;28;20037;-72
2023/11/05 11:06:58;;;;;;;2.33;1.10;;;;;;;21.22;44.73;97421.38;5029550;28;20053;-71
2023/11/05 11:09:29;;;;;;;1.50;1.00;;;;;;;21.30;44.75;97435.94;5021484;28;20037;-72
2023/11/05 11:11:57;;;;;;;0.82;0.82;;;;;;;21.28;44.79;97438.06;5027532;28;20635;-72
2023/11/05 11:14:27;;;;;;;0.82;0.82;;;;;;;21.28;44.80;97443.34;5019495;28;20048;-73
2023/11/05 11:16:53;;;;;;;1.60;1.02;;;;;;;21.27;44.59;97450.50;5023192;28;20037;-72
2023/11/05 11:19:21;;;;;;;1.40;1.10;;;;;;;21.25;44.60;97455.28;5020088;28;20045;-72
2023/11/05 11:21:55;;;;;;;1.50;0.85;;;;;;;21.27;44.85;97457.66;5018858;28;20554;-72
2023/11/05 11:24:33;;;;;;;1.13;0.93;;;;;;;21.06;44.85;97431.22;5019665;28;20058;-72
2023/11/05 11:27:04;;;;;;;1.65;1.05;;;;;;;21.17;44.70;97455.00;5023519;28;20129;-72
2023/11/05 11:29:35;;;;;;;1.10;1.00;;;;;;;21.24;44.58;97472.22;5020857;28;20055;-72